Time;durP1;ratioP1;P1;durP2;ratioP2;P2;SDS_P1;SDS_P2;PMS_P1;PMS_P2;Temp;Humidity;BMP_temperature;BMP_pressure;BME280_temperature;BME280_humidity;BME280_pressure;Samples;Min_cycle;Max_cycle;Signal;HPM_P1;HPM_P2
2022/09/07 00:00:47;;;;;;;15.45;2.63;;;23.30;94.70;;;;;;5088944;28;20656;-79
2022/09/07 00:03:15;;;;;;;7.57;2.15;;;22.30;99.90;;;;;;5090849;28;20248;-77
2022/09/07 00:05:43;;;;;;;6.53;1.98;;;21.80;99.90;;;;;;5074292;28;20214;-76
2022/09/07 00:08:11;;;;;;;6.65;2.28;;;21.50;99.90;;;;;;5077760;28;20221;-76
2022/09/07 00:10:39;;;;;;;5.70;2.47;;;21.40;99.90;;;;;;5073390;28;20198;-76
2022/09/07 00:13:08;;;;;;;3.38;1.88;;;21.20;99.90;;;;;;5073133;28;20201;-76
2022/09/07 00:15:39;;;;;;;5.03;1.90;;;20.80;99.90;;;;;;5073231;28;20205;-76
2022/09/07 00:18:08;;;;;;;3.65;1.83;;;21.00;99.90;;;;;;5072006;28;20201;-76
2022/09/07 00:20:36;;;;;;;2.65;1.70;;;20.60;99.90;;;;;;5076713;28;20225;-76
2022/09/07 00:23:04;;;;;;;3.45;1.77;;;20.60;99.90;;;;;;5078020;28;20193;-77
2022/09/07 00:25:32;;;;;;;3.85;1.48;;;20.60;99.90;;;;;;5075382;28;20224;-78
2022/09/07 00:27:59;;;;;;;7.00;2.17;;;20.50;99.90;;;;;;5073775;28;20206;-76
2022/09/07 00:30:27;;;;;;;4.63;2.38;;;20.50;99.90;;;;;;5072320;28;20205;-80
2022/09/07 00:32:55;;;;;;;2.45;1.83;;;20.40;99.90;;;;;;5065195;28;20189;-76
2022/09/07 00:35:24;;;;;;;3.85;2.10;;;20.50;99.90;;;;;;5070015;28;20212;-77
2022/09/07 00:37:51;;;;;;;2.50;2.15;;;20.40;99.90;;;;;;5072927;28;20201;-78
2022/09/07 00:40:19;;;;;;;9.25;2.90;;;20.40;99.90;;;;;;5071357;28;20205;-76
2022/09/07 00:42:46;;;;;;;3.63;2.30;;;20.40;99.90;;;;;;5064841;28;20202;-76
2022/09/07 00:45:16;;;;;;;3.20;2.22;;;20.40;99.90;;;;;;5070649;28;20221;-78
2022/09/07 00:47:53;;;;;;;2.35;2.15;;;20.40;99.90;;;;;;5085724;28;20576;-76
2022/09/07 00:50:25;;;;;;;2.67;2.10;;;20.30;99.90;;;;;;5067568;28;20216;-78
2022/09/07 00:52:57;;;;;;;5.60;2.35;;;20.30;99.90;;;;;;5087124;28;20204;-76
2022/09/07 00:55:26;;;;;;;2.97;2.25;;;20.30;99.90;;;;;;5075774;28;20674;-77
2022/09/07 00:57:55;;;;;;;4.30;2.92;;;20.30;99.90;;;;;;5089081;28;20216;-76
2022/09/07 01:00:23;;;;;;;4.45;2.35;;;20.20;99.90;;;;;;5081017;28;20275;-77
2022/09/07 01:02:53;;;;;;;2.60;1.98;;;20.20;99.90;;;;;;5095521;28;20197;-77
2022/09/07 01:05:27;;;;;;;3.33;1.90;;;20.30;99.90;;;;;;5073455;28;20220;-76
2022/09/07 01:07:59;;;;;;;3.10;2.25;;;20.50;99.90;;;;;;5076957;28;20206;-77
2022/09/07 01:10:30;;;;;;;3.13;2.47;;;20.10;99.90;;;;;;5083689;28;20204;-76
2022/09/07 01:13:06;;;;;;;3.42;1.92;;;19.90;99.90;;;;;;5073993;28;20197;-76
2022/09/07 01:15:45;;;;;;;2.88;1.88;;;20.00;99.90;;;;;;5074192;28;20194;-76
2022/09/07 01:18:22;;;;;;;3.40;2.67;;;20.20;99.90;;;;;;5074148;28;20224;-76
2022/09/07 01:21:20;;;;;;;3.42;2.22;;;20.10;99.90;;;;;;5074219;28;20201;-77
2022/09/07 01:24:16;;;;;;;4.30;2.58;;;20.10;99.90;;;;;;5051803;28;20201;-76
2022/09/07 01:27:17;;;;;;;3.17;1.80;;;19.80;99.90;;;;;;5068587;28;20220;-77
2022/09/07 01:29:55;;;;;;;5.15;2.17;;;20.20;99.90;;;;;;5074806;28;20227;-78
2022/09/07 01:32:31;;;;;;;4.45;2.00;;;20.30;99.90;;;;;;5072921;28;20201;-76
2022/09/07 01:35:02;;;;;;;4.68;1.90;;;20.10;99.90;;;;;;5073249;28;20197;-76
2022/09/07 01:37:40;;;;;;;2.95;1.90;;;20.30;99.90;;;;;;5072161;28;20664;-78
2022/09/07 01:40:11;;;;;;;3.33;1.70;;;20.40;99.90;;;;;;5067084;28;20237;-78
2022/09/07 01:42:47;;;;;;;4.72;1.40;;;20.50;99.90;;;;;;5074710;28;20543;-77
2022/09/07 01:45:20;;;;;;;3.55;1.80;;;20.50;99.90;;;;;;5070448;28;20228;-76
2022/09/07 01:47:52;;;;;;;2.15;1.23;;;20.40;99.90;;;;;;5088027;28;20714;-77
2022/09/07 01:50:23;;;;;;;3.05;1.40;;;20.10;99.90;;;;;;5088955;28;20205;-76
2022/09/07 01:52:56;;;;;;;3.05;1.08;;;20.20;99.90;;;;;;5072277;28;20193;-76
2022/09/07 01:55:28;;;;;;;2.72;1.02;;;20.10;99.90;;;;;;5075699;28;20205;-76
2022/09/07 01:58:01;;;;;;;2.60;1.13;;;20.00;99.90;;;;;;5075068;28;20198;-76
2022/09/07 02:00:31;;;;;;;3.58;1.08;;;19.90;99.90;;;;;;5075717;28;20204;-76
2022/09/07 02:03:08;;;;;;;3.53;1.08;;;19.70;99.90;;;;;;5075428;28;20197;-77
2022/09/07 02:05:43;;;;;;;1.83;0.88;;;19.60;99.90;;;;;;5089621;28;20193;-77
2022/09/07 02:08:17;;;;;;;2.15;0.90;;;19.60;99.90;;;;;;5070242;28;20239;-77
2022/09/07 02:10:51;;;;;;;2.17;1.27;;;19.70;99.90;;;;;;5073333;28;20205;-76
2022/09/07 02:13:23;;;;;;;3.40;1.25;;;19.80;99.90;;;;;;5081263;28;20674;-76
2022/09/07 02:15:59;;;;;;;3.75;1.23;;;19.80;99.90;;;;;;5075505;28;20190;-76
2022/09/07 02:18:34;;;;;;;1.33;0.90;;;19.70;99.90;;;;;;5075906;28;20217;-76
2022/09/07 02:21:02;;;;;;;1.90;0.93;;;19.70;99.90;;;;;;5074394;28;20202;-77
2022/09/07 02:23:34;;;;;;;4.07;1.00;;;19.60;99.90;;;;;;5076046;28;20198;-78
2022/09/07 02:26:05;;;;;;;3.38;0.90;;;19.50;99.90;;;;;;5077987;28;20198;-76
2022/09/07 02:28:35;;;;;;;1.58;1.08;;;19.50;99.90;;;;;;5078229;28;20225;-78
2022/09/07 02:31:07;;;;;;;1.05;0.90;;;19.50;99.90;;;;;;5071291;28;20205;-76
2022/09/07 02:33:34;;;;;;;1.65;0.95;;;19.50;99.90;;;;;;5076678;28;20204;-76
2022/09/07 02:36:03;;;;;;;1.33;1.20;;;19.70;99.90;;;;;;5073194;28;20203;-76
2022/09/07 02:38:31;;;;;;;2.95;1.02;;;19.70;99.90;;;;;;5069169;28;20221;-76
2022/09/07 02:41:02;;;;;;;2.28;1.20;;;19.80;99.90;;;;;;5074040;28;20209;-76
2022/09/07 02:43:31;;;;;;;1.25;1.00;;;19.90;99.90;;;;;;5073627;28;20202;-76
2022/09/07 02:46:17;;;;;;;2.92;0.98;;;20.00;99.90;;;;;;5072976;28;20204;-77
2022/09/07 02:48:52;;;;;;;6.07;1.20;;;20.10;99.90;;;;;;5071900;28;20225;-76
2022/09/07 02:51:27;;;;;;;1.33;0.93;;;20.20;99.90;;;;;;5091675;28;20697;-76
2022/09/07 02:54:11;;;;;;;3.47;1.40;;;19.90;99.90;;;;;;5077197;28;20200;-76
2022/09/07 02:56:54;;;;;;;3.00;1.30;;;19.80;99.90;;;;;;5073014;28;20189;-76
2022/09/07 02:59:38;;;;;;;2.97;1.55;;;19.70;99.90;;;;;;5076509;28;20221;-76
2022/09/07 03:02:14;;;;;;;1.95;1.30;;;19.70;99.90;;;;;;5078843;28;20201;-77
2022/09/07 03:04:47;;;;;;;2.78;1.20;;;19.60;99.90;;;;;;5078308;28;20201;-76
2022/09/07 03:07:18;;;;;;;1.98;1.20;;;19.90;99.90;;;;;;5075547;28;20210;-76
2022/09/07 03:09:50;;;;;;;2.22;1.17;;;20.20;99.90;;;;;;5076523;28;20222;-76
2022/09/07 03:12:17;;;;;;;2.20;1.08;;;20.30;99.90;;;;;;5072644;28;20321;-76
2022/09/07 03:14:45;;;;;;;1.63;1.05;;;20.30;99.90;;;;;;5073761;28;20586;-77
2022/09/07 03:17:15;;;;;;;1.85;1.33;;;20.40;99.90;;;;;;5073019;28;20201;-76
2022/09/07 03:19:42;;;;;;;4.22;1.30;;;20.40;99.90;;;;;;5074936;28;20217;-79
2022/09/07 03:22:10;;;;;;;2.42;1.50;;;20.40;99.90;;;;;;5077145;28;20193;-76
2022/09/07 03:24:37;;;;;;;1.50;1.27;;;20.40;99.90;;;;;;5090981;28;20213;-76
2022/09/07 03:27:05;;;;;;;2.58;1.48;;;20.40;99.90;;;;;;5071729;28;20229;-77
2022/09/07 03:29:33;;;;;;;1.85;1.20;;;20.40;99.90;;;;;;5075119;28;20228;-77
2022/09/07 03:32:00;;;;;;;1.25;1.10;;;20.30;99.90;;;;;;5070812;28;20201;-78
2022/09/07 03:34:30;;;;;;;1.98;1.65;;;19.90;99.90;;;;;;5069099;28;20208;-76
2022/09/07 03:36:57;;;;;;;3.17;1.33;;;19.60;99.90;;;;;;5073245;28;20198;-76
2022/09/07 03:39:26;;;;;;;1.55;1.20;;;19.90;99.90;;;;;;5071733;28;20240;-76
2022/09/07 03:41:53;;;;;;;1.83;1.23;;;19.80;99.90;;;;;;5072077;28;20224;-77
2022/09/07 03:44:21;;;;;;;2.92;1.13;;;19.70;99.90;;;;;;5074657;28;20205;-78
2022/09/07 03:46:48;;;;;;;1.77;1.00;;;19.70;99.90;;;;;;5070626;28;20742;-76
2022/09/07 03:49:16;;;;;;;1.90;1.13;;;19.70;99.90;;;;;;5074457;28;20592;-76
2022/09/07 03:51:45;;;;;;;3.53;1.00;;;19.70;99.90;;;;;;5076429;28;20206;-77
2022/09/07 03:54:13;;;;;;;1.48;0.90;;;19.90;99.90;;;;;;5069452;28;20193;-76
2022/09/07 03:56:40;;;;;;;1.30;0.90;;;20.00;99.90;;;;;;5072965;28;20563;-76
2022/09/07 03:59:10;;;;;;;4.00;1.17;;;20.00;99.90;;;;;;5074743;28;20213;-77
2022/09/07 04:01:37;;;;;;;1.75;1.02;;;19.60;99.90;;;;;;5085134;28;20201;-79
2022/09/07 04:04:05;;;;;;;3.28;1.00;;;19.50;99.90;;;;;;5068517;28;20220;-78
2022/09/07 04:06:33;;;;;;;1.27;1.00;;;19.50;99.90;;;;;;5063869;28;20193;-78
2022/09/07 04:09:04;;;;;;;1.88;1.25;;;19.30;99.90;;;;;;5067313;28;20216;-78
2022/09/07 04:11:33;;;;;;;2.63;1.40;;;19.10;99.90;;;;;;5058191;28;20208;-78
2022/09/07 04:14:00;;;;;;;2.20;1.23;;;19.30;99.90;;;;;;5079412;28;20198;-78
2022/09/07 04:16:28;;;;;;;2.85;1.40;;;19.40;99.90;;;;;;5069642;28;20202;-78
2022/09/07 04:18:57;;;;;;;1.60;1.40;;;19.40;99.90;;;;;;5069609;28;20221;-79
2022/09/07 04:21:26;;;;;;;2.97;1.90;;;19.50;99.90;;;;;;5066459;28;20201;-79
2022/09/07 04:23:54;;;;;;;1.80;1.40;;;19.60;99.90;;;;;;5085292;28;20194;-79
2022/09/07 04:26:39;;;;;;;2.72;1.30;;;19.50;99.90;;;;;;5068012;28;20196;-78
2022/09/07 04:29:07;;;;;;;1.80;1.42;;;19.50;99.90;;;;;;5071081;28;20217;-78
2022/09/07 04:31:35;;;;;;;2.70;1.55;;;19.70;99.90;;;;;;5074381;28;20202;-79
2022/09/07 04:34:03;;;;;;;2.38;1.30;;;19.70;99.90;;;;;;5074027;28;20198;-78
2022/09/07 04:36:31;;;;;;;2.53;1.60;;;19.70;99.90;;;;;;5075357;28;20193;-78
2022/09/07 04:39:00;;;;;;;2.42;1.50;;;19.70;99.90;;;;;;5069845;28;20218;-79
2022/09/07 04:41:30;;;;;;;3.05;1.50;;;19.60;99.90;;;;;;5068861;28;20198;-78
2022/09/07 04:44:03;;;;;;;1.98;1.30;;;19.60;99.90;;;;;;5073458;28;20202;-78
2022/09/07 04:46:33;;;;;;;2.10;1.50;;;19.50;99.90;;;;;;5072967;28;20561;-78
2022/09/07 04:49:03;;;;;;;2.05;1.63;;;19.30;99.90;;;;;;5083055;28;20222;-78
2022/09/07 04:51:32;;;;;;;1.55;1.45;;;19.20;99.90;;;;;;5090935;28;20213;-78
2022/09/07 04:54:02;;;;;;;2.15;1.58;;;19.00;99.90;;;;;;5090084;28;20205;-78
2022/09/07 04:56:30;;;;;;;1.42;1.30;;;19.00;99.90;;;;;;5073503;28;20651;-78
2022/09/07 04:58:59;;;;;;;2.20;1.67;;;19.10;99.90;;;;;;5072112;28;20244;-78
2022/09/07 05:01:28;;;;;;;1.48;1.38;;;19.20;99.90;;;;;;5071511;28;20537;-78
2022/09/07 05:03:55;;;;;;;1.58;1.45;;;19.20;99.90;;;;;;5072242;28;20233;-79
2022/09/07 05:06:24;;;;;;;2.58;1.80;;;19.10;99.90;;;;;;5064239;28;20213;-79
2022/09/07 05:08:53;;;;;;;2.25;2.00;;;19.10;99.90;;;;;;5069219;28;20233;-78
2022/09/07 05:11:21;;;;;;;2.22;1.52;;;19.00;99.90;;;;;;5076187;28;20565;-79
2022/09/07 05:13:49;;;;;;;1.70;1.60;;;18.90;99.90;;;;;;5073980;28;20208;-79
2022/09/07 05:16:18;;;;;;;3.05;1.98;;;19.00;99.90;;;;;;5078855;28;20221;-78
2022/09/07 05:18:52;;;;;;;2.35;2.00;;;18.90;99.90;;;;;;5071935;28;20221;-77
2022/09/07 05:21:36;;;;;;;1.52;1.42;;;19.00;99.90;;;;;;5071494;28;20201;-77
2022/09/07 05:24:06;;;;;;;2.15;1.95;;;19.10;99.90;;;;;;5066857;28;20201;-78
2022/09/07 05:26:57;;;;;;;3.33;2.03;;;19.00;99.90;;;;;;5074419;28;20186;-78
2022/09/07 05:29:25;;;;;;;2.58;1.85;;;19.10;99.90;;;;;;5072336;28;20237;-78
2022/09/07 05:31:53;;;;;;;2.00;1.90;;;19.30;99.90;;;;;;5072650;28;20202;-79
2022/09/07 05:34:22;;;;;;;2.83;2.45;;;19.00;99.90;;;;;;5074064;28;20660;-79
2022/09/07 05:36:50;;;;;;;4.20;2.40;;;19.00;99.90;;;;;;5068587;28;20651;-79
2022/09/07 05:39:19;;;;;;;5.18;2.67;;;19.00;99.90;;;;;;5067067;28;20213;-78
2022/09/07 05:41:56;;;;;;;3.67;2.20;;;19.10;99.90;;;;;;5068371;28;20194;-78
2022/09/07 05:44:32;;;;;;;3.03;2.20;;;19.20;99.90;;;;;;5067877;28;20197;-79
2022/09/07 05:47:00;;;;;;;2.70;2.38;;;19.30;99.90;;;;;;5061065;28;20198;-78
2022/09/07 05:49:39;;;;;;;2.72;2.53;;;19.40;99.90;;;;;;5086980;28;20572;-78
2022/09/07 05:52:07;;;;;;;3.28;2.42;;;19.20;99.90;;;;;;5088312;28;20204;-79
2022/09/07 05:54:34;;;;;;;3.05;2.58;;;19.10;99.90;;;;;;5070587;28;20694;-77
2022/09/07 05:57:02;;;;;;;3.10;2.90;;;19.10;99.90;;;;;;5071099;28;20194;-78
2022/09/07 05:59:30;;;;;;;4.68;3.13;;;19.10;99.90;;;;;;5083288;28;20217;-77
2022/09/07 06:02:00;;;;;;;4.75;2.72;;;19.10;99.90;;;;;;5067770;28;20205;-78
2022/09/07 06:04:30;;;;;;;13.05;3.92;;;19.10;99.90;;;;;;5068370;28;20221;-77
2022/09/07 06:07:02;;;;;;;4.28;3.55;;;19.10;99.90;;;;;;5068813;28;20562;-77
2022/09/07 06:09:30;;;;;;;3.67;3.30;;;19.10;99.90;;;;;;5067352;28;20222;-77
2022/09/07 06:11:57;;;;;;;4.80;3.22;;;19.00;99.90;;;;;;5065774;28;20200;-77
2022/09/07 06:14:25;;;;;;;4.65;3.33;;;19.10;99.90;;;;;;5070952;28;20198;-77
2022/09/07 06:16:52;;;;;;;5.32;3.53;;;19.20;99.90;;;;;;5071271;28;20212;-77
2022/09/07 06:19:20;;;;;;;4.47;3.30;;;19.30;99.90;;;;;;5071106;28;20218;-77
2022/09/07 06:21:47;;;;;;;4.00;3.50;;;19.50;99.90;;;;;;5071029;28;20208;-77
2022/09/07 06:24:16;;;;;;;3.60;3.00;;;19.60;99.90;;;;;;5083472;28;20567;-79
2022/09/07 06:26:44;;;;;;;3.33;3.03;;;19.80;99.90;;;;;;5077822;28;20202;-79
2022/09/07 06:29:12;;;;;;;4.05;3.05;;;20.00;99.90;;;;;;5075642;28;20232;-79
2022/09/07 06:31:39;;;;;;;5.57;3.25;;;20.00;99.90;;;;;;5076329;28;20208;-79
2022/09/07 06:34:07;;;;;;;6.10;4.05;;;20.00;99.90;;;;;;5079540;28;20202;-80
2022/09/07 06:36:35;;;;;;;4.13;2.83;;;20.10;99.90;;;;;;5074547;28;20210;-80
2022/09/07 06:39:02;;;;;;;6.25;3.55;;;20.20;99.90;;;;;;5070964;28;20205;-80
2022/09/07 06:41:32;;;;;;;4.50;3.58;;;20.30;99.90;;;;;;5072256;28;20206;-80
2022/09/07 06:43:59;;;;;;;4.22;3.80;;;20.30;99.90;;;;;;5073431;28;20541;-80
2022/09/07 06:46:27;;;;;;;4.10;3.47;;;20.20;99.90;;;;;;5062900;28;20556;-80
2022/09/07 06:48:55;;;;;;;7.18;4.43;;;20.10;99.90;;;;;;5072469;28;20233;-80
2022/09/07 06:51:25;;;;;;;6.53;4.38;;;20.10;99.90;;;;;;5073307;28;20209;-80
2022/09/07 06:53:56;;;;;;;5.20;3.58;;;19.80;99.90;;;;;;5070475;28;20227;-80
2022/09/07 06:56:26;;;;;;;4.03;3.53;;;20.00;99.90;;;;;;5088836;28;20205;-80
2022/09/07 06:58:55;;;;;;;4.88;3.30;;;20.20;99.90;;;;;;5070628;28;20213;-80
2022/09/07 07:01:25;;;;;;;4.63;3.85;;;20.30;99.90;;;;;;5068556;28;20201;-80
2022/09/07 07:03:54;;;;;;;4.57;3.70;;;20.40;99.90;;;;;;5075857;28;20205;-80
2022/09/07 07:06:22;;;;;;;4.28;3.88;;;20.40;99.90;;;;;;5065711;28;20221;-78
2022/09/07 07:08:53;;;;;;;5.50;4.20;;;20.10;99.90;;;;;;5062050;28;20217;-77
2022/09/07 07:11:21;;;;;;;5.72;4.03;;;20.00;99.90;;;;;;5084494;28;20220;-77
2022/09/07 07:13:49;;;;;;;7.72;4.03;;;20.00;99.90;;;;;;5067871;28;20202;-77
2022/09/07 07:16:18;;;;;;;4.88;4.32;;;20.10;99.90;;;;;;5069279;28;20202;-77
2022/09/07 07:18:47;;;;;;;7.82;4.72;;;20.40;99.90;;;;;;5067404;28;20221;-77
2022/09/07 07:21:15;;;;;;;8.88;4.35;;;20.50;99.90;;;;;;5068069;28;20207;-77
2022/09/07 07:23:43;;;;;;;6.40;4.22;;;20.60;99.90;;;;;;5067830;28;20602;-77
2022/09/07 07:26:13;;;;;;;5.30;3.72;;;20.70;99.90;;;;;;5067459;28;20205;-77
2022/09/07 07:28:43;;;;;;;4.88;3.55;;;20.90;99.90;;;;;;5070337;28;20220;-77
2022/09/07 07:31:11;;;;;;;6.63;4.03;;;21.10;99.90;;;;;;5066057;28;20194;-77
2022/09/07 07:33:40;;;;;;;4.40;3.67;;;21.00;99.90;;;;;;5084032;28;20202;-77
2022/09/07 07:36:10;;;;;;;4.60;4.20;;;20.50;99.90;;;;;;5084630;28;20197;-77
2022/09/07 07:38:37;;;;;;;4.53;3.75;;;20.30;99.90;;;;;;5068199;28;20217;-77
2022/09/07 07:41:05;;;;;;;5.57;3.38;;;20.50;99.90;;;;;;5068719;28;20533;-77
2022/09/07 07:43:33;;;;;;;4.40;3.90;;;20.50;99.90;;;;;;5065155;28;20222;-77
2022/09/07 07:46:01;;;;;;;5.07;3.20;;;20.60;99.90;;;;;;5066387;28;20186;-77
2022/09/07 07:48:30;;;;;;;4.22;3.47;;;20.70;99.90;;;;;;5067839;28;20217;-77
2022/09/07 07:51:00;;;;;;;3.63;3.17;;;20.70;99.90;;;;;;5085562;28;20193;-77
2022/09/07 07:53:29;;;;;;;3.53;2.88;;;20.80;99.90;;;;;;5071212;28;20201;-77
2022/09/07 07:55:58;;;;;;;3.70;3.00;;;20.80;99.90;;;;;;5085022;28;20212;-77
2022/09/07 07:58:27;;;;;;;3.63;2.47;;;20.80;99.90;;;;;;5069590;28;20217;-77
2022/09/07 08:00:55;;;;;;;4.72;3.30;;;20.70;99.90;;;;;;5067034;28;20575;-77
2022/09/07 08:03:23;;;;;;;5.78;3.50;;;20.70;99.90;;;;;;5067630;28;20201;-77
2022/09/07 08:05:50;;;;;;;3.90;3.42;;;20.90;99.90;;;;;;5084066;28;20210;-77
2022/09/07 08:08:20;;;;;;;4.20;3.53;;;20.90;99.90;;;;;;5067643;28;20224;-77
2022/09/07 08:10:47;;;;;;;3.92;3.00;;;20.80;99.90;;;;;;5063276;28;20228;-77
2022/09/07 08:13:15;;;;;;;5.85;3.58;;;20.80;99.90;;;;;;5064114;28;20213;-79
2022/09/07 08:15:45;;;;;;;6.28;3.72;;;20.90;99.90;;;;;;5067517;28;20203;-78
2022/09/07 08:18:15;;;;;;;3.83;3.28;;;21.00;99.90;;;;;;5068378;28;20587;-78
2022/09/07 08:20:42;;;;;;;4.18;3.50;;;21.00;99.90;;;;;;5066738;28;20197;-78
2022/09/07 08:23:10;;;;;;;5.47;3.08;;;21.20;99.90;;;;;;5069376;28;20197;-78
2022/09/07 08:26:01;;;;;;;4.57;2.60;;;21.40;99.90;;;;;;5068300;28;20263;-78
2022/09/07 08:28:31;;;;;;;4.45;2.35;;;21.40;99.90;;;;;;5049903;28;20219;-78
2022/09/07 08:30:59;;;;;;;3.78;2.10;;;21.40;99.90;;;;;;5053209;28;20226;-77
2022/09/07 08:33:26;;;;;;;3.10;2.20;;;21.40;99.90;;;;;;5064840;28;20538;-77
2022/09/07 08:35:56;;;;;;;3.22;2.55;;;21.40;99.90;;;;;;5068869;28;20221;-78
2022/09/07 08:38:24;;;;;;;3.17;2.75;;;21.50;99.90;;;;;;5063074;28;20237;-78
2022/09/07 08:40:51;;;;;;;2.60;2.40;;;21.50;99.90;;;;;;5080147;28;20590;-78
2022/09/07 08:43:35;;;;;;;4.88;3.47;;;21.70;99.90;;;;;;5067123;28;20206;-78
2022/09/07 08:46:11;;;;;;;4.85;3.00;;;21.70;99.90;;;;;;5063898;28;20205;-78
2022/09/07 08:48:40;;;;;;;3.72;2.95;;;21.60;99.90;;;;;;5062195;28;20221;-77
2022/09/07 08:51:12;;;;;;;4.22;3.70;;;21.40;99.90;;;;;;5071554;28;20224;-79
2022/09/07 08:53:45;;;;;;;4.30;3.13;;;21.50;99.90;;;;;;5067833;28;20208;-78
2022/09/07 08:56:18;;;;;;;3.97;3.50;;;21.70;99.90;;;;;;5068604;28;20198;-79
2022/09/07 08:58:49;;;;;;;4.05;3.47;;;21.90;99.90;;;;;;5062175;28;20232;-79
2022/09/07 09:01:39;;;;;;;4.43;4.03;;;21.90;99.90;;;;;;5063088;28;20231;-78
2022/09/07 09:04:13;;;;;;;5.28;4.72;;;21.80;99.90;;;;;;5064143;28;20208;-78
2022/09/07 09:07:09;;;;;;;6.30;4.60;;;21.50;99.90;;;;;;5063840;28;20198;-79
2022/09/07 09:09:56;;;;;;;8.80;5.07;;;22.10;99.90;;;;;;5061870;28;20704;-79
2022/09/07 09:12:32;;;;;;;7.45;4.82;;;22.40;99.90;;;;;;5061775;28;20213;-79
2022/09/07 09:15:14;;;;;;;5.90;5.30;;;22.10;99.90;;;;;;5065884;28;20199;-81
2022/09/07 09:17:52;;;;;;;4.75;4.35;;;22.20;99.90;;;;;;5071619;28;20194;-79
2022/09/07 09:20:24;;;;;;;5.97;5.40;;;22.10;99.90;;;;;;5068061;28;20194;-80
2022/09/07 09:22:54;;;;;;;7.22;5.63;;;22.10;99.90;;;;;;5072562;28;20194;-79
2022/09/07 09:25:25;;;;;;;5.50;4.70;;;21.80;99.90;;;;;;5072008;28;20209;-80
2022/09/07 09:27:54;;;;;;;5.32;4.80;;;21.90;99.90;;;;;;5075220;28;20209;-80
2022/09/07 09:30:25;;;;;;;8.07;6.07;;;22.10;99.90;;;;;;5074890;28;20278;-80
2022/09/07 09:33:13;;;;;;;5.45;4.93;;;21.80;99.90;;;;;;5076689;28;20194;-80
2022/09/07 09:35:41;;;;;;;6.60;5.80;;;22.10;99.90;;;;;;5076130;28;20202;-80
2022/09/07 09:38:28;;;;;;;5.90;5.40;;;22.00;99.90;;;;;;5072695;28;20209;-80
2022/09/07 09:40:57;;;;;;;8.70;6.10;;;22.10;99.90;;;;;;5073473;28;20194;-79
2022/09/07 09:43:29;;;;;;;7.57;5.90;;;22.40;99.90;;;;;;5072706;28;20205;-78
2022/09/07 09:45:58;;;;;;;7.65;6.68;;;22.20;99.90;;;;;;5070656;28;20197;-77
2022/09/07 09:48:32;;;;;;;6.40;5.80;;;21.90;99.90;;;;;;5069381;28;20221;-78
2022/09/07 09:51:02;;;;;;;6.18;5.50;;;22.10;99.90;;;;;;5081147;28;20220;-78
2022/09/07 09:53:32;;;;;;;6.95;6.18;;;22.20;99.90;;;;;;5072931;28;20198;-78
2022/09/07 09:56:01;;;;;;;7.15;6.35;;;22.00;99.90;;;;;;5074139;28;20203;-77
2022/09/07 09:58:31;;;;;;;5.93;5.53;;;22.30;99.90;;;;;;5068357;28;20227;-78
2022/09/07 10:01:01;;;;;;;6.25;5.65;;;22.70;99.90;;;;;;5064237;28;20202;-79
2022/09/07 10:03:31;;;;;;;6.05;5.55;;;22.90;99.90;;;;;;5067580;28;20221;-79
2022/09/07 10:06:05;;;;;;;6.80;5.10;;;22.70;99.90;;;;;;5069266;28;20205;-79
2022/09/07 10:08:35;;;;;;;6.65;5.40;;;22.80;99.90;;;;;;5069490;28;20221;-79
2022/09/07 10:11:06;;;;;;;7.28;5.20;;;22.90;99.90;;;;;;5071662;28;20202;-79
2022/09/07 10:13:36;;;;;;;6.75;5.88;;;22.90;99.90;;;;;;5069731;28;20201;-79
2022/09/07 10:16:07;;;;;;;7.90;5.60;;;22.60;99.90;;;;;;5065530;28;20198;-78
2022/09/07 10:18:38;;;;;;;5.30;4.80;;;22.70;99.90;;;;;;5063962;28;20213;-78
2022/09/07 10:21:13;;;;;;;6.75;4.47;;;23.10;99.90;;;;;;5061371;28;20553;-78
2022/09/07 10:23:41;;;;;;;5.60;4.78;;;23.30;99.90;;;;;;5065361;28;20193;-77
2022/09/07 10:26:29;;;;;;;8.02;5.80;;;23.20;99.90;;;;;;5084879;28;20202;-77
2022/09/07 10:29:24;;;;;;;7.43;6.25;;;22.70;99.90;;;;;;5063514;28;20221;-77
2022/09/07 10:32:26;;;;;;;6.63;6.07;;;22.60;99.90;;;;;;5072033;28;20229;-77
2022/09/07 10:35:05;;;;;;;9.00;7.60;;;22.70;99.90;;;;;;5074455;28;20200;-79
2022/09/07 10:37:43;;;;;;;8.25;7.45;;;22.40;99.90;;;;;;5074860;28;20202;-79
2022/09/07 10:40:25;;;;;;;7.97;7.13;;;22.30;99.90;;;;;;5074869;28;20217;-79
2022/09/07 10:42:58;;;;;;;8.32;7.53;;;22.50;99.90;;;;;;5078778;28;20206;-80
2022/09/07 10:45:36;;;;;;;7.22;6.63;;;22.30;99.90;;;;;;5072728;28;20194;-80
2022/09/07 10:48:13;;;;;;;5.70;5.20;;;22.50;99.90;;;;;;5062663;28;20201;-79
2022/09/07 10:50:47;;;;;;;6.60;4.97;;;22.40;99.90;;;;;;5067094;28;20213;-80
2022/09/07 10:53:35;;;;;;;5.03;4.53;;;22.50;99.90;;;;;;5083175;28;20198;-80
2022/09/07 10:56:08;;;;;;;5.65;4.40;;;22.70;99.90;;;;;;5072049;28;20205;-80
2022/09/07 10:58:51;;;;;;;4.32;3.92;;;22.60;99.90;;;;;;5068888;28;20225;-81
2022/09/07 11:01:27;;;;;;;4.68;4.20;;;22.90;99.90;;;;;;5068805;28;20193;-81
2022/09/07 11:04:09;;;;;;;4.40;4.10;;;23.10;99.90;;;;;;5071955;28;20194;-81
2022/09/07 11:06:40;;;;;;;5.32;4.53;;;22.90;99.90;;;;;;5068033;28;20201;-81
2022/09/07 11:09:28;;;;;;;6.22;5.63;;;22.90;99.90;;;;;;5070346;28;20221;-81
2022/09/07 11:12:02;;;;;;;6.32;5.70;;;22.90;99.90;;;;;;5067685;28;20214;-81
2022/09/07 11:14:36;;;;;;;6.35;5.75;;;22.80;99.90;;;;;;5059611;28;20209;-81
2022/09/07 11:17:11;;;;;;;5.90;5.32;;;22.70;99.90;;;;;;5069212;28;20212;-81
2022/09/07 11:19:46;;;;;;;6.85;6.18;;;23.00;99.90;;;;;;5068426;28;20229;-81
2022/09/07 11:22:29;;;;;;;7.32;6.68;;;23.10;99.90;;;;;;5066936;28;20205;-81
2022/09/07 11:25:03;;;;;;;8.60;7.78;;;23.30;99.90;;;;;;5067739;28;20197;-81
2022/09/07 11:27:36;;;;;;;9.25;8.35;;;23.20;99.90;;;;;;5072914;28;20206;-78
2022/09/07 11:30:13;;;;;;;8.80;8.00;;;23.50;99.90;;;;;;5067753;28;20221;-79
2022/09/07 11:32:49;;;;;;;7.32;6.63;;;23.60;99.90;;;;;;5064757;28;20194;-79
2022/09/07 11:35:24;;;;;;;6.45;5.85;;;23.80;99.90;;;;;;5082606;28;20209;-79
2022/09/07 11:37:58;;;;;;;6.25;5.75;;;23.90;99.90;;;;;;5063251;28;20205;-79
2022/09/07 11:40:30;;;;;;;6.18;4.40;;;24.10;99.90;;;;;;5074418;28;20201;-78
2022/09/07 11:43:03;;;;;;;8.75;6.03;;;24.10;99.90;;;;;;5065661;28;20217;-78
2022/09/07 11:45:34;;;;;;;8.27;7.45;;;24.10;99.90;;;;;;5065578;28;20201;-78
2022/09/07 11:48:10;;;;;;;7.93;7.22;;;23.70;99.90;;;;;;5064058;28;20205;-78
2022/09/07 11:50:45;;;;;;;6.20;5.15;;;23.80;99.90;;;;;;5062568;28;20205;-79
2022/09/07 11:53:17;;;;;;;4.47;4.18;;;24.00;99.90;;;;;;5063919;28;20205;-79
2022/09/07 11:55:48;;;;;;;4.68;4.28;;;24.50;99.90;;;;;;5069714;28;20197;-78
2022/09/07 11:58:32;;;;;;;5.10;4.60;;;24.50;99.90;;;;;;5067848;28;20218;-80
2022/09/07 12:01:14;;;;;;;6.22;5.63;;;24.50;99.90;;;;;;5066550;28;20196;-79
2022/09/07 12:04:17;;;;;;;7.47;5.32;;;24.40;99.90;;;;;;5067256;28;20194;-79
2022/09/07 12:07:06;;;;;;;5.75;5.25;;;24.50;99.90;;;;;;5047497;28;20200;-79
2022/09/07 12:09:53;;;;;;;6.75;5.57;;;24.30;99.90;;;;;;5060501;28;20229;-79
2022/09/07 12:12:40;;;;;;;5.75;5.35;;;24.30;99.90;;;;;;5066937;28;20206;-80
2022/09/07 12:15:21;;;;;;;5.68;5.18;;;24.40;99.90;;;;;;5068438;28;20204;-79
2022/09/07 12:18:11;;;;;;;6.30;5.20;;;24.50;99.90;;;;;;5070334;28;20200;-79
2022/09/07 12:20:40;;;;;;;6.25;4.65;;;24.80;99.90;;;;;;5067069;28;20205;-79
2022/09/07 12:23:25;;;;;;;4.85;4.43;;;25.10;99.90;;;;;;5071233;28;20189;-80
2022/09/07 12:25:53;;;;;;;4.15;3.75;;;25.20;99.90;;;;;;5067367;28;20659;-80
2022/09/07 12:28:54;;;;;;;5.28;4.53;;;25.10;99.90;;;;;;5071234;28;20226;-80
2022/09/07 12:31:43;;;;;;;6.53;5.70;;;25.10;99.90;;;;;;5068252;28;20220;-79
2022/09/07 12:34:56;;;;;;;6.10;5.50;;;24.70;99.90;;;;;;5062389;28;20576;-78
2022/09/07 12:37:42;;;;;;;5.32;3.78;;;25.30;99.90;;;;;;5071029;28;20201;-78
2022/09/07 12:43:52;;;;;;;2.33;2.10;;;25.80;99.90;;;;;;5072817;28;20180;-80
2022/09/07 12:47:04;;;;;;;2.78;2.58;;;25.70;99.40;;;;;;5078991;28;20207;-80
2022/09/07 12:50:14;;;;;;;3.38;2.80;;;26.30;99.30;;;;;;5067237;28;20229;-80
2022/09/07 12:52:47;;;;;;;4.38;2.63;;;26.00;98.40;;;;;;5070156;28;20287;-80
2022/09/07 12:55:37;;;;;;;3.60;2.80;;;26.20;98.90;;;;;;5060588;28;20199;-80
2022/09/07 12:58:25;;;;;;;4.50;3.00;;;25.90;99.80;;;;;;5059775;28;20208;-80
2022/09/07 13:01:08;;;;;;;3.00;2.80;;;26.00;99.90;;;;;;5091437;28;20194;-80
2022/09/07 13:04:13;;;;;;;4.38;3.75;;;25.60;99.90;;;;;;5076152;28;20220;-80
2022/09/07 13:07:09;;;;;;;4.40;3.92;;;25.30;99.90;;;;;;5042361;28;20206;-80
2022/09/07 13:09:37;;;;;;;4.55;4.15;;;25.10;99.90;;;;;;5074088;28;20679;-80
2022/09/07 13:12:24;;;;;;;4.90;4.38;;;25.10;99.90;;;;;;5076011;28;20228;-80
2022/09/07 13:14:54;;;;;;;7.15;5.60;;;25.60;99.90;;;;;;5076902;28;20213;-80
2022/09/07 13:17:54;;;;;;;6.43;5.80;;;25.80;99.90;;;;;;5075229;28;20194;-80
2022/09/07 13:20:31;;;;;;;4.95;4.53;;;25.90;99.90;;;;;;5056587;28;20198;-80
2022/09/07 13:23:21;;;;;;;7.07;4.88;;;25.70;99.90;;;;;;5069745;28;20196;-80